Time;durP1;ratioP1;P1;durP2;ratioP2;P2;SDS_P1;SDS_P2;PMS_P1;PMS_P2;Temp;Humidity;BMP_temperature;BMP_pressure;BME280_temperature;BME280_humidity;BME280_pressure;Samples;Min_cycle;Max_cycle;Signal;HPM_P1;HPM_P2
2024/01/17 00:00:05;;;;;;;8.02;6.78;;;;;;;;;;5067634;27;100546;-77
2024/01/17 00:02:37;;;;;;;;;;;;;;;;;;5065348;27;98583;-77
2024/01/17 00:05:04;;;;;;;11.20;6.40;;;;;;;;;;5058673;27;129217;-78
2024/01/17 00:07:30;;;;;;;13.40;6.97;;;;;;;;;;5064005;27;99630;-78
2024/01/17 00:09:57;;;;;;;12.95;8.15;;;;;;;;;;5058920;27;100145;-77
2024/01/17 00:12:24;;;;;;;12.05;8.00;;;;;;;;;;5060740;27;99247;-76
2024/01/17 00:14:50;;;;;;;9.85;7.72;;;;;;;;;;5053997;27;100233;-77
2024/01/17 00:17:17;;;;;;;10.38;7.93;;;;;;;;;;5059262;27;100544;-78
2024/01/17 00:19:45;;;;;;;9.75;6.68;;;;;;;;;;5056183;27;99912;-78
2024/01/17 00:22:14;;;;;;;9.65;7.82;;;;;;;;;;5057876;27;99950;-77
2024/01/17 00:24:41;;;;;;;15.15;7.65;;;;;;;;;;5057357;27;99977;-76
2024/01/17 00:27:08;;;;;;;11.75;7.63;;;;;;;;;;5055155;27;100258;-77
2024/01/17 00:29:34;;;;;;;14.57;7.90;;;;;;;;;;5048017;27;100136;-77
2024/01/17 00:32:01;;;;;;;10.52;6.78;;;;;;;;;;5047616;27;99916;-76
2024/01/17 00:34:27;;;;;;;8.38;7.43;;;;;;;;;;5058168;27;100514;-78
2024/01/17 00:36:54;;;;;;;14.48;7.13;;;;;;;;;;5062324;27;100120;-78
2024/01/17 00:39:22;;;;;;;12.73;7.45;;;;;;;;;;5057683;27;99168;-76
2024/01/17 00:41:50;;;;;;;16.17;9.25;;;;;;;;;;5058939;27;99828;-77
2024/01/17 00:44:18;;;;;;;13.35;8.05;;;;;;;;;;5056590;27;99389;-78
2024/01/17 00:46:45;;;;;;;14.30;8.15;;;;;;;;;;5058054;27;100143;-77
2024/01/17 00:49:11;;;;;;;13.20;9.15;;;;;;;;;;5054924;27;100043;-78
2024/01/17 00:51:38;;;;;;;13.73;6.07;;;;;;;;;;5067330;27;100389;-75
2024/01/17 00:54:05;;;;;;;12.18;8.70;;;;;;;;;;5061571;27;100406;-77
2024/01/17 00:56:35;;;;;;;11.90;8.23;;;;;;;;;;5066522;27;99261;-76
2024/01/17 00:59:03;;;;;;;9.10;7.50;;;;;;;;;;5066867;27;100129;-77
2024/01/17 01:01:29;;;;;;;12.27;7.63;;;;;;;;;;5058234;27;100082;-77
2024/01/17 01:03:56;;;;;;;21.27;8.93;;;;;;;;;;5058748;27;99878;-76
2024/01/17 01:06:22;;;;;;;15.43;8.15;;;;;;;;;;5057996;27;100364;-77
2024/01/17 01:08:49;;;;;;;24.05;8.45;;;;;;;;;;5061554;27;100304;-76
2024/01/17 01:11:15;;;;;;;12.70;7.72;;;;;;;;;;5060627;27;101170;-76
2024/01/17 01:13:42;;;;;;;18.00;9.18;;;;;;;;;;5062892;27;100419;-77
2024/01/17 01:16:10;;;;;;;9.93;7.10;;;;;;;;;;5058487;27;99577;-76
2024/01/17 01:18:36;;;;;;;20.05;7.50;;;;;;;;;;5066678;27;100443;-76
2024/01/17 01:21:03;;;;;;;16.63;9.13;;;;;;;;;;5065001;27;99448;-78
2024/01/17 01:23:30;;;;;;;25.65;9.32;;;;;;;;;;5065867;27;100342;-76
2024/01/17 01:25:57;;;;;;;12.68;7.93;;;;;;;;;;5065180;27;99648;-76
2024/01/17 01:28:23;;;;;;;9.15;7.35;;;;;;;;;;5048417;27;100065;-76
2024/01/17 01:30:50;;;;;;;12.30;8.10;;;;;;;;;;5056235;27;100874;-76
2024/01/17 01:33:16;;;;;;;10.18;7.65;;;;;;;;;;5059976;27;100939;-77
2024/01/17 01:35:43;;;;;;;19.02;7.40;;;;;;;;;;5058451;27;100013;-75
2024/01/17 01:38:09;;;;;;;13.35;7.97;;;;;;;;;;5059268;27;100039;-75
2024/01/17 01:40:38;;;;;;;10.05;7.82;;;;;;;;;;5054554;27;99982;-76
2024/01/17 01:43:16;;;;;;;8.55;7.68;;;;;;;;;;5055577;27;100295;-76
2024/01/17 01:45:43;;;;;;;14.57;8.32;;;;;;;;;;5057718;27;100438;-76
2024/01/17 01:48:09;;;;;;;19.83;8.13;;;;;;;;;;5057886;27;100050;-76
2024/01/17 01:50:36;;;;;;;13.98;8.15;;;;;;;;;;5055247;27;99894;-76
2024/01/17 01:53:03;;;;;;;10.18;8.10;;;;;;;;;;5054847;27;100484;-75
2024/01/17 01:55:29;;;;;;;16.10;8.20;;;;;;;;;;5056659;27;100065;-76
2024/01/17 01:57:57;;;;;;;7.10;6.32;;;;;;;;;;5057223;27;100202;-76
2024/01/17 02:00:24;;;;;;;13.32;7.60;;;;;;;;;;5055100;27;99367;-76
2024/01/17 02:02:50;;;;;;;12.57;8.20;;;;;;;;;;5052474;27;100580;-76
2024/01/17 02:05:18;;;;;;;10.98;7.75;;;;;;;;;;5061041;27;101036;-75
2024/01/17 02:07:45;;;;;;;11.15;8.23;;;;;;;;;;5066184;27;99797;-76
2024/01/17 02:10:12;;;;;;;21.73;8.68;;;;;;;;;;5066053;27;99937;-75
2024/01/17 02:12:38;;;;;;;15.35;8.98;;;;;;;;;;5049522;27;100315;-76
2024/01/17 02:15:05;;;;;;;31.92;9.20;;;;;;;;;;5048194;27;99865;-75
2024/01/17 02:17:31;;;;;;;21.95;8.85;;;;;;;;;;5065586;27;99155;-76
2024/01/17 02:19:58;;;;;;;16.25;8.13;;;;;;;;;;5064929;27;100194;-75
2024/01/17 02:22:24;;;;;;;9.45;8.10;;;;;;;;;;5065667;27;99875;-76
2024/01/17 02:24:51;;;;;;;14.43;8.23;;;;;;;;;;5065396;27;100763;-75
2024/01/17 02:27:17;;;;;;;17.38;8.48;;;;;;;;;;5063007;27;100253;-76
2024/01/17 02:29:46;;;;;;;16.88;8.10;;;;;;;;;;5060549;27;99052;-76
2024/01/17 02:32:12;;;;;;;22.42;8.77;;;;;;;;;;5048802;27;100817;-76
2024/01/17 02:34:39;;;;;;;10.85;8.35;;;;;;;;;;5060675;27;100063;-76
2024/01/17 02:37:09;;;;;;;11.13;7.40;;;;;;;;;;5057719;27;99925;-76
2024/01/17 02:39:36;;;;;;;12.45;8.00;;;;;;;;;;5049861;27;99657;-75
2024/01/17 02:42:02;;;;;;;19.55;8.30;;;;;;;;;;5059089;27;99981;-78
2024/01/17 02:44:29;;;;;;;14.63;8.77;;;;;;;;;;5053998;27;100175;-76
2024/01/17 02:46:55;;;;;;;12.68;8.20;;;;;;;;;;5052645;27;101138;-76
2024/01/17 02:49:21;;;;;;;24.23;9.38;;;;;;;;;;5054496;27;99871;-76
2024/01/17 02:51:48;;;;;;;10.23;7.55;;;;;;;;;;5058619;27;100319;-75
2024/01/17 02:54:14;;;;;;;9.15;7.15;;;;;;;;;;5061392;27;99916;-76
2024/01/17 02:56:41;;;;;;;7.72;6.85;;;;;;;;;;5063625;27;100692;-75
2024/01/17 02:59:08;;;;;;;9.13;7.13;;;;;;;;;;5060363;27;100428;-76
2024/01/17 03:01:34;;;;;;;8.90;7.75;;;;;;;;;;5055512;27;100138;-76
2024/01/17 03:04:01;;;;;;;13.35;7.97;;;;;;;;;;5058340;27;99911;-76
2024/01/17 03:06:28;;;;;;;9.43;7.03;;;;;;;;;;5059604;27;100145;-77
2024/01/17 03:08:54;;;;;;;12.73;7.65;;;;;;;;;;5062271;27;100292;-76
2024/01/17 03:11:21;;;;;;;11.18;8.18;;;;;;;;;;5062844;27;99933;-76
2024/01/17 03:13:47;;;;;;;7.68;6.88;;;;;;;;;;5064358;27;100019;-76
2024/01/17 03:16:18;;;;;;;11.88;7.82;;;;;;;;;;5053021;27;99563;-76
2024/01/17 03:18:45;;;;;;;11.25;7.47;;;;;;;;;;5059545;27;100145;-76
2024/01/17 03:21:13;;;;;;;10.82;6.70;;;;;;;;;;5060522;27;100087;-76
2024/01/17 03:23:39;;;;;;;13.15;7.93;;;;;;;;;;5058519;27;100242;-75
2024/01/17 03:26:06;;;;;;;7.82;6.75;;;;;;;;;;5061898;27;100231;-75
2024/01/17 03:28:32;;;;;;;16.33;7.97;;;;;;;;;;5063078;27;99137;-76
2024/01/17 03:30:59;;;;;;;18.15;8.10;;;;;;;;;;5066167;27;99134;-75
2024/01/17 03:33:25;;;;;;;12.57;7.60;;;;;;;;;;5064160;27;100356;-76
2024/01/17 03:35:52;;;;;;;8.95;7.93;;;;;;;;;;5053573;27;101560;-75
2024/01/17 03:38:19;;;;;;;9.90;7.80;;;;;;;;;;5062666;27;100301;-75
2024/01/17 03:40:46;;;;;;;8.55;6.55;;;;;;;;;;5057076;27;99976;-76
2024/01/17 03:43:12;;;;;;;11.70;8.82;;;;;;;;;;5057178;27;100017;-76
2024/01/17 03:45:39;;;;;;;9.65;7.90;;;;;;;;;;5058605;27;100349;-76
2024/01/17 03:48:06;;;;;;;10.73;7.63;;;;;;;;;;5054647;27;100094;-75
2024/01/17 03:50:33;;;;;;;11.43;6.72;;;;;;;;;;5059997;27;100307;-76
2024/01/17 03:53:00;;;;;;;12.00;6.72;;;;;;;;;;5064800;27;100882;-76
2024/01/17 03:55:26;;;;;;;11.52;7.97;;;;;;;;;;5052898;27;99409;-76
2024/01/17 03:57:53;;;;;;;17.58;7.35;;;;;;;;;;5059800;27;100319;-76
2024/01/17 04:00:19;;;;;;;11.50;7.97;;;;;;;;;;5067101;27;100390;-76
2024/01/17 04:02:46;;;;;;;9.07;7.35;;;;;;;;;;5067781;27;100625;-76
2024/01/17 04:05:12;;;;;;;24.38;8.05;;;;;;;;;;5066627;27;100354;-76
2024/01/17 04:07:39;;;;;;;12.13;7.50;;;;;;;;;;5068535;27;100091;-77
2024/01/17 04:10:05;;;;;;;13.82;7.00;;;;;;;;;;5064938;27;99178;-76
2024/01/17 04:12:32;;;;;;;14.82;7.60;;;;;;;;;;5047289;27;100288;-76
2024/01/17 04:14:58;;;;;;;12.70;8.38;;;;;;;;;;5052228;27;99101;-77
2024/01/17 04:17:25;;;;;;;9.43;6.97;;;;;;;;;;5062768;27;99499;-76
2024/01/17 04:19:51;;;;;;;13.68;7.45;;;;;;;;;;5069652;27;100117;-75
2024/01/17 04:22:18;;;;;;;7.05;6.35;;;;;;;;;;5069338;27;100070;-76
2024/01/17 04:24:45;;;;;;;11.25;6.90;;;;;;;;;;5066545;27;100885;-76
2024/01/17 04:27:11;;;;;;;12.48;6.57;;;;;;;;;;5064048;27;100156;-75
2024/01/17 04:29:38;;;;;;;8.38;7.18;;;;;;;;;;5050453;27;100075;-75
2024/01/17 04:32:04;;;;;;;6.95;6.25;;;;;;;;;;5059833;27;100734;-76
2024/01/17 04:34:31;;;;;;;11.68;6.65;;;;;;;;;;5054297;27;99945;-76
2024/01/17 04:36:57;;;;;;;11.48;7.30;;;;;;;;;;5063415;27;99768;-76
2024/01/17 04:39:24;;;;;;;13.50;7.93;;;;;;;;;;5055385;27;99873;-76
2024/01/17 04:41:51;;;;;;;15.02;7.18;;;;;;;;;;5058166;27;101051;-76
2024/01/17 04:44:17;;;;;;;7.90;5.93;;;;;;;;;;5061783;27;100485;-76
2024/01/17 04:46:46;;;;;;;9.93;6.35;;;;;;;;;;5059814;27;99959;-76
2024/01/17 04:49:12;;;;;;;7.13;6.50;;;;;;;;;;5053861;27;100212;-76
2024/01/17 04:51:41;;;;;;;9.48;6.90;;;;;;;;;;5059373;27;99855;-75
2024/01/17 04:54:08;;;;;;;8.13;6.97;;;;;;;;;;5050714;27;100385;-75
2024/01/17 04:56:35;;;;;;;11.80;6.82;;;;;;;;;;5064806;27;100330;-76
2024/01/17 04:59:02;;;;;;;11.32;6.90;;;;;;;;;;5059445;27;100744;-76
2024/01/17 05:01:28;;;;;;;12.15;6.45;;;;;;;;;;5054399;27;100308;-76
2024/01/17 05:03:54;;;;;;;11.95;5.47;;;;;;;;;;5056489;27;100570;-77
2024/01/17 05:06:21;;;;;;;7.57;6.65;;;;;;;;;;5062515;27;101887;-76
2024/01/17 05:08:48;;;;;;;10.55;7.05;;;;;;;;;;5059377;27;99161;-77
2024/01/17 05:11:21;;;;;;;11.77;8.23;;;;;;;;;;5059262;27;100328;-76
2024/01/17 05:13:48;;;;;;;6.32;5.78;;;;;;;;;;5057101;27;100800;-76
2024/01/17 05:16:14;;;;;;;7.80;6.28;;;;;;;;;;5059637;27;100608;-76
2024/01/17 05:18:41;;;;;;;7.60;6.45;;;;;;;;;;5057936;27;100182;-75
2024/01/17 05:21:08;;;;;;;18.27;6.25;;;;;;;;;;5051188;27;99067;-75
2024/01/17 05:23:34;;;;;;;8.13;6.80;;;;;;;;;;5066642;27;100414;-76
2024/01/17 05:26:01;;;;;;;10.75;6.47;;;;;;;;;;5065622;27;100050;-74
2024/01/17 05:28:28;;;;;;;14.98;6.47;;;;;;;;;;5057908;27;99150;-75
2024/01/17 05:30:54;;;;;;;9.00;6.57;;;;;;;;;;5067360;27;99837;-76
2024/01/17 05:33:20;;;;;;;15.73;6.78;;;;;;;;;;5066131;27;99140;-76
2024/01/17 05:35:47;;;;;;;6.90;6.22;;;;;;;;;;5056833;27;99954;-76
2024/01/17 05:38:14;;;;;;;17.45;7.38;;;;;;;;;;5045383;27;100863;-75
2024/01/17 05:40:40;;;;;;;8.60;6.88;;;;;;;;;;5062139;27;100069;-75
2024/01/17 05:43:07;;;;;;;20.60;6.38;;;;;;;;;;5065148;27;99282;-75
2024/01/17 05:45:33;;;;;;;10.50;7.00;;;;;;;;;;5066564;27;100008;-75
2024/01/17 05:48:01;;;;;;;8.23;6.10;;;;;;;;;;5066045;27;99901;-76
2024/01/17 05:50:27;;;;;;;7.20;5.88;;;;;;;;;;5065366;27;99478;-76
2024/01/17 05:52:54;;;;;;;6.38;5.55;;;;;;;;;;5055677;27;99923;-75
2024/01/17 05:55:20;;;;;;;12.77;5.95;;;;;;;;;;5059610;27;99427;-75
2024/01/17 05:57:47;;;;;;;13.93;7.25;;;;;;;;;;5053030;27;99837;-76
2024/01/17 06:00:14;;;;;;;10.02;6.13;;;;;;;;;;5056553;27;99806;-76
2024/01/17 06:02:41;;;;;;;10.02;6.68;;;;;;;;;;5059844;27;100161;-75
2024/01/17 06:05:08;;;;;;;9.40;6.90;;;;;;;;;;5055139;27;100345;-75
2024/01/17 06:07:35;;;;;;;12.25;6.88;;;;;;;;;;5055790;27;99064;-75
2024/01/17 06:10:02;;;;;;;8.80;5.85;;;;;;;;;;5047856;27;100577;-76
2024/01/17 06:12:29;;;;;;;6.93;6.22;;;;;;;;;;5060168;27;99099;-76
2024/01/17 06:14:55;;;;;;;9.15;7.30;;;;;;;;;;5057815;27;100589;-75
2024/01/17 06:17:22;;;;;;;6.95;6.35;;;;;;;;;;5046044;27;100201;-76
2024/01/17 06:19:48;;;;;;;10.55;6.57;;;;;;;;;;5055377;27;99994;-76
2024/01/17 06:22:18;;;;;;;8.45;5.53;;;;;;;;;;5054999;27;99255;-75
2024/01/17 06:24:45;;;;;;;7.45;6.18;;;;;;;;;;5061825;27;100341;-75
2024/01/17 06:27:12;;;;;;;10.18;6.97;;;;;;;;;;5054342;27;101067;-76
2024/01/17 06:29:43;;;;;;;8.90;6.25;;;;;;;;;;5063279;27;100582;-74
2024/01/17 06:32:10;;;;;;;5.72;5.15;;;;;;;;;;5058359;27;99246;-74
2024/01/17 06:34:36;;;;;;;9.20;6.28;;;;;;;;;;5062128;27;99555;-76
2024/01/17 06:37:04;;;;;;;7.35;6.53;;;;;;;;;;5058007;27;100373;-75
2024/01/17 06:39:31;;;;;;;7.60;6.40;;;;;;;;;;5056850;27;100111;-75
2024/01/17 06:41:58;;;;;;;11.63;6.07;;;;;;;;;;5058907;27;99731;-75
2024/01/17 06:44:28;;;;;;;12.02;6.50;;;;;;;;;;5063943;27;99389;-76
2024/01/17 06:46:55;;;;;;;11.20;5.72;;;;;;;;;;5069286;27;99364;-75
2024/01/17 06:49:22;;;;;;;8.88;6.75;;;;;;;;;;5068332;27;100231;-74
2024/01/17 06:51:48;;;;;;;6.28;5.75;;;;;;;;;;5052996;27;99263;-76
2024/01/17 06:54:15;;;;;;;13.75;6.03;;;;;;;;;;5048061;27;100514;-76
2024/01/17 06:56:41;;;;;;;10.13;5.72;;;;;;;;;;5048893;27;100193;-75
2024/01/17 06:59:08;;;;;;;10.75;6.50;;;;;;;;;;5048666;27;100046;-75
2024/01/17 07:01:38;;;;;;;10.07;6.32;;;;;;;;;;5057501;27;99069;-77
2024/01/17 07:04:04;;;;;;;8.13;6.70;;;;;;;;;;5047307;27;99918;-76
2024/01/17 07:06:31;;;;;;;8.85;6.03;;;;;;;;;;5063511;27;100019;-76
2024/01/17 07:08:59;;;;;;;10.48;5.70;;;;;;;;;;5050935;27;99930;-76
2024/01/17 07:11:25;;;;;;;7.55;6.10;;;;;;;;;;5054133;27;99159;-75
2024/01/17 07:13:52;;;;;;;7.32;6.28;;;;;;;;;;5052276;27;99619;-75
2024/01/17 07:16:18;;;;;;;7.90;7.13;;;;;;;;;;5050477;27;100665;-76
2024/01/17 07:18:45;;;;;;;11.93;6.97;;;;;;;;;;5049407;27;100611;-78
2024/01/17 07:21:11;;;;;;;8.98;6.45;;;;;;;;;;5047287;27;100291;-78
2024/01/17 07:23:38;;;;;;;8.02;6.20;;;;;;;;;;5054781;27;100452;-78
2024/01/17 07:26:05;;;;;;;10.55;6.50;;;;;;;;;;5050162;27;100270;-76
2024/01/17 07:28:32;;;;;;;7.00;6.40;;;;;;;;;;5051274;27;100631;-79
2024/01/17 07:30:59;;;;;;;9.55;7.05;;;;;;;;;;5047936;27;99916;-79
2024/01/17 07:33:26;;;;;;;11.02;6.45;;;;;;;;;;5049048;27;99024;-77
2024/01/17 07:35:52;;;;;;;8.43;6.20;;;;;;;;;;5047748;27;100636;-78
2024/01/17 07:38:19;;;;;;;10.77;6.60;;;;;;;;;;5047921;27;100102;-76
2024/01/17 07:40:46;;;;;;;7.68;6.20;;;;;;;;;;5046095;27;99969;-77
2024/01/17 07:43:12;;;;;;;6.88;6.18;;;;;;;;;;5055234;27;99542;-77
2024/01/17 07:45:39;;;;;;;7.97;5.45;;;;;;;;;;5047622;27;101519;-77
2024/01/17 07:48:05;;;;;;;11.80;6.65;;;;;;;;;;5047579;27;99847;-76
2024/01/17 07:50:32;;;;;;;8.25;5.97;;;;;;;;;;5050586;27;100208;-77
2024/01/17 07:52:58;;;;;;;12.30;6.78;;;;;;;;;;5047461;27;100025;-76
2024/01/17 07:55:24;;;;;;;6.40;5.53;;;;;;;;;;5061611;27;100294;-76
2024/01/17 07:57:51;;;;;;;7.45;6.15;;;;;;;;;;5068909;27;100061;-76
2024/01/17 08:00:18;;;;;;;8.25;6.10;;;;;;;;;;5068185;27;99183;-77
2024/01/17 08:02:45;;;;;;;10.65;6.80;;;;;;;;;;5067475;27;100270;-76
2024/01/17 08:05:12;;;;;;;7.15;6.00;;;;;;;;;;5066948;27;101118;-74
2024/01/17 08:07:38;;;;;;;7.22;6.53;;;;;;;;;;5067469;27;100010;-75
2024/01/17 08:10:06;;;;;;;6.60;4.85;;;;;;;;;;5066817;27;100246;-77
2024/01/17 08:12:34;;;;;;;11.85;6.45;;;;;;;;;;5070171;27;99785;-75
2024/01/17 08:15:01;;;;;;;6.47;5.88;;;;;;;;;;5067700;27;99598;-75
2024/01/17 08:17:27;;;;;;;5.95;5.45;;;;;;;;;;5066634;27;99898;-76
2024/01/17 08:19:58;;;;;;;7.80;7.00;;;;;;;;;;5067432;27;99934;-75
2024/01/17 08:22:24;;;;;;;6.85;6.15;;;;;;;;;;5067894;27;99709;-76
2024/01/17 08:24:51;;;;;;;5.93;5.35;;;;;;;;;;5067148;27;99783;-76
2024/01/17 08:27:17;;;;;;;8.43;6.07;;;;;;;;;;5067365;27;100336;-75
2024/01/17 08:29:45;;;;;;;9.77;6.55;;;;;;;;;;5067142;27;101039;-76
2024/01/17 08:32:11;;;;;;;6.75;6.05;;;;;;;;;;5066690;27;99880;-76
2024/01/17 08:34:38;;;;;;;9.18;6.88;;;;;;;;;;5070871;27;98885;-76
2024/01/17 08:37:04;;;;;;;12.40;7.00;;;;;;;;;;5067528;27;100025;-76
2024/01/17 08:39:31;;;;;;;6.72;6.03;;;;;;;;;;5066978;27;99850;-76
2024/01/17 08:41:57;;;;;;;10.10;6.72;;;;;;;;;;5067108;27;99313;-76
2024/01/17 08:44:25;;;;;;;8.65;6.43;;;;;;;;;;5067649;27;99934;-76
2024/01/17 08:46:53;;;;;;;8.48;6.53;;;;;;;;;;5067018;27;99929;-76
2024/01/17 08:49:20;;;;;;;15.15;6.70;;;;;;;;;;5067078;27;100350;-76
2024/01/17 08:51:47;;;;;;;9.45;6.50;;;;;;;;;;5066736;27;99836;-76
2024/01/17 08:54:13;;;;;;;16.63;7.47;;;;;;;;;;5066406;27;100110;-76
2024/01/17 08:56:40;;;;;;;11.35;6.53;;;;;;;;;;5070690;27;100147;-76
2024/01/17 08:59:06;;;;;;;9.00;6.13;;;;;;;;;;5059290;27;102286;-75
2024/01/17 09:01:33;;;;;;;8.52;6.75;;;;;;;;;;5067533;27;100118;-76
2024/01/17 09:03:59;;;;;;;11.38;7.47;;;;;;;;;;5066693;27;99936;-76
2024/01/17 09:06:25;;;;;;;7.10;6.40;;;;;;;;;;5066481;27;99980;-75
2024/01/17 09:08:52;;;;;;;8.52;6.57;;;;;;;;;;5067485;27;100232;-76
2024/01/17 09:11:19;;;;;;;12.93;7.03;;;;;;;;;;5067473;27;100226;-75
2024/01/17 09:13:46;;;;;;;14.60;6.68;;;;;;;;;;5066452;27;99620;-75
2024/01/17 09:16:12;;;;;;;9.50;6.22;;;;;;;;;;5070396;27;100099;-75
2024/01/17 09:18:39;;;;;;;6.13;5.53;;;;;;;;;;5066028;27;99881;-75
2024/01/17 09:21:05;;;;;;;8.30;6.32;;;;;;;;;;5066238;27;100242;-75
2024/01/17 09:23:32;;;;;;;11.68;6.63;;;;;;;;;;5063534;27;99778;-75
2024/01/17 09:25:59;;;;;;;8.13;5.70;;;;;;;;;;5046315;27;100265;-75
2024/01/17 09:28:29;;;;;;;17.23;6.55;;;;;;;;;;5045950;27;100298;-75
2024/01/17 09:30:56;;;;;;;10.65;7.30;;;;;;;;;;5046515;27;99975;-75
2024/01/17 09:33:22;;;;;;;13.43;6.40;;;;;;;;;;5046513;27;99974;-75
2024/01/17 09:35:50;;;;;;;9.88;6.05;;;;;;;;;;5046224;27;99520;-76
2024/01/17 09:38:27;;;;;;;19.02;8.23;;;;;;;;;;5049779;27;100005;-75
2024/01/17 09:40:54;;;;;;;9.45;8.23;;;;;;;;;;5045632;27;99414;-75
2024/01/17 09:43:20;;;;;;;7.68;6.88;;;;;;;;;;5045592;27;100191;-76
2024/01/17 09:45:47;;;;;;;7.72;6.70;;;;;;;;;;5052521;27;100485;-75
2024/01/17 09:48:14;;;;;;;7.05;6.35;;;;;;;;;;5065608;27;100409;-76
2024/01/17 09:50:41;;;;;;;8.90;7.25;;;;;;;;;;5065906;27;99177;-76
2024/01/17 09:53:11;;;;;;;11.00;6.60;;;;;;;;;;5065998;27;99102;-75
2024/01/17 09:55:38;;;;;;;8.90;6.57;;;;;;;;;;5065190;27;100708;-74
2024/01/17 09:58:05;;;;;;;8.70;6.57;;;;;;;;;;5065986;27;100032;-75
2024/01/17 10:00:32;;;;;;;6.50;6.03;;;;;;;;;;5069935;27;99069;-75
2024/01/17 10:02:59;;;;;;;8.02;6.72;;;;;;;;;;5065131;27;100162;-75
2024/01/17 10:05:30;;;;;;;12.18;6.70;;;;;;;;;;5066285;27;99745;-75
2024/01/17 10:07:59;;;;;;;8.55;7.30;;;;;;;;;;5065738;27;101025;-75
2024/01/17 10:10:27;;;;;;;7.57;6.80;;;;;;;;;;5065722;27;99937;-75
2024/01/17 10:12:54;;;;;;;14.63;7.40;;;;;;;;;;5066336;27;99824;-75
2024/01/17 10:15:22;;;;;;;11.50;6.82;;;;;;;;;;5066153;27;101264;-75
2024/01/17 10:17:49;;;;;;;8.10;7.07;;;;;;;;;;5063967;27;99287;-76
2024/01/17 10:20:20;;;;;;;13.40;7.15;;;;;;;;;;5066294;27;99834;-75
2024/01/17 10:22:47;;;;;;;9.27;7.53;;;;;;;;;;5069632;27;100497;-75
2024/01/17 10:25:13;;;;;;;13.23;6.95;;;;;;;;;;5065694;27;99843;-76
2024/01/17 10:27:40;;;;;;;10.00;6.72;;;;;;;;;;5065989;27;100212;-75
2024/01/17 10:30:09;;;;;;;11.90;7.07;;;;;;;;;;5065593;27;100049;-74
2024/01/17 10:32:35;;;;;;;5.90;5.30;;;;;;;;;;5065535;27;100424;-76
2024/01/17 10:35:06;;;;;;;18.38;6.15;;;;;;;;;;5065247;27;99404;-75
2024/01/17 10:37:33;;;;;;;9.82;7.18;;;;;;;;;;5065525;27;99872;-76
2024/01/17 10:40:10;;;;;;;10.70;6.72;;;;;;;;;;5061326;27;98982;-76
2024/01/17 10:42:40;;;;;;;12.75;7.65;;;;;;;;;;5059668;27;99576;-78
2024/01/17 10:45:08;;;;;;;8.75;7.28;;;;;;;;;;5063518;27;99009;-76
2024/01/17 10:47:35;;;;;;;10.25;6.78;;;;;;;;;;5048220;27;100379;-76
2024/01/17 10:50:02;;;;;;;11.70;6.60;;;;;;;;;;5051309;27;99991;-74
2024/01/17 10:52:33;;;;;;;11.75;8.15;;;;;;;;;;5053257;27;99344;-75
2024/01/17 10:55:04;;;;;;;11.02;7.13;;;;;;;;;;5051330;27;101520;-75
2024/01/17 10:57:32;;;;;;;10.32;6.88;;;;;;;;;;5053337;27;100502;-74
2024/01/17 11:00:01;;;;;;;9.10;7.15;;;;;;;;;;5051774;27;100741;-73
2024/01/17 11:02:28;;;;;;;10.18;6.78;;;;;;;;;;5050828;27;100755;-75
2024/01/17 11:04:56;;;;;;;9.23;6.50;;;;;;;;;;5052064;27;99936;-74
2024/01/17 11:07:23;;;;;;;12.77;6.88;;;;;;;;;;5054247;27;100566;-74
2024/01/17 11:09:51;;;;;;;11.20;7.38;;;;;;;;;;5048831;27;100129;-76
2024/01/17 11:12:21;;;;;;;9.30;6.90;;;;;;;;;;5050630;27;99688;-76
2024/01/17 11:14:48;;;;;;;7.68;6.28;;;;;;;;;;5048052;27;99355;-76
2024/01/17 11:17:15;;;;;;;12.60;8.05;;;;;;;;;;5051310;27;100262;-76
2024/01/17 11:19:57;;;;;;;7.82;7.03;;;;;;;;;;5050648;27;99886;-76
2024/01/17 11:22:23;;;;;;;8.63;6.85;;;;;;;;;;5057478;27;101203;-76
2024/01/17 11:24:52;;;;;;;10.80;6.88;;;;;;;;;;5053629;27;102111;-78
2024/01/17 11:27:21;;;;;;;7.97;6.60;;;;;;;;;;5053339;27;99941;-77
2024/01/17 11:30:01;;;;;;;11.20;7.55;;;;;;;;;;5049764;27;100143;-77
2024/01/17 11:32:51;;;;;;;10.57;7.13;;;;;;;;;;5049374;27;100090;-74
2024/01/17 11:35:44;;;;;;;13.85;7.22;;;;;;;;;;5044838;27;100121;-76
2024/01/17 11:38:11;;;;;;;;;;;;;;;;;;5057151;27;100163;-75
2024/01/17 11:40:39;;;;;;;7.93;6.05;;;;;;;;;;5047897;27;129153;-75
2024/01/17 11:43:06;;;;;;;10.13;6.47;;;;;;;;;;5051072;27;100749;-76
2024/01/17 11:45:33;;;;;;;12.68;6.50;;;;;;;;;;5051665;27;99988;-76
2024/01/17 11:48:19;;;;;;;10.07;6.35;;;;;;;;;;5052181;27;99973;-75
2024/01/17 11:50:53;;;;;;;7.78;6.53;;;;;;;;;;5055920;27;100124;-77
2024/01/17 11:53:24;;;;;;;8.02;6.70;;;;;;;;;;5055164;27;100195;-76
2024/01/17 11:55:50;;;;;;;7.97;7.10;;;;;;;;;;5048945;27;100257;-76
2024/01/17 11:58:17;;;;;;;9.77;7.13;;;;;;;;;;5051832;27;100335;-77
2024/01/17 12:00:43;;;;;;;10.70;6.80;;;;;;;;;;5049267;27;99991;-76
2024/01/17 12:03:27;;;;;;;12.18;6.10;;;;;;;;;;5049842;27;100794;-76
2024/01/17 12:05:54;;;;;;;12.73;7.20;;;;;;;;;;5050421;27;100891;-76
2024/01/17 12:08:21;;;;;;;10.38;6.93;;;;;;;;;;5050879;27;100286;-75
2024/01/17 12:10:54;;;;;;;9.20;6.68;;;;;;;;;;5050723;27;100393;-76
2024/01/17 12:13:24;;;;;;;7.80;6.40;;;;;;;;;;5051505;27;100361;-76
2024/01/17 12:15:57;;;;;;;8.50;6.53;;;;;;;;;;5048023;27;100858;-76
2024/01/17 12:18:24;;;;;;;34.00;8.10;;;;;;;;;;5049725;27;100116;-75
2024/01/17 12:20:52;;;;;;;8.45;5.90;;;;;;;;;;5049750;27;99987;-72
2024/01/17 12:23:21;;;;;;;10.63;7.35;;;;;;;;;;5049001;27;100254;-76
2024/01/17 12:25:48;;;;;;;8.82;6.53;;;;;;;;;;5050332;27;100197;-76
2024/01/17 12:28:22;;;;;;;10.27;6.03;;;;;;;;;;5050920;27;100052;-77
2024/01/17 12:30:58;;;;;;;8.73;6.43;;;;;;;;;;5047418;27;99486;-77
2024/01/17 12:33:28;;;;;;;10.48;6.22;;;;;;;;;;5049426;27;99756;-75
2024/01/17 12:35:57;;;;;;;11.50;6.65;;;;;;;;;;5055920;27;100157;-77
2024/01/17 12:38:24;;;;;;;7.55;6.35;;;;;;;;;;5047422;27;100271;-77
2024/01/17 12:40:50;;;;;;;7.72;6.40;;;;;;;;;;5044910;27;102561;-76
2024/01/17 12:43:18;;;;;;;7.20;6.50;;;;;;;;;;5050505;27;101085;-75
2024/01/17 12:45:45;;;;;;;7.90;6.05;;;;;;;;;;5049976;27;100427;-76
2024/01/17 12:48:15;;;;;;;11.93;6.90;;;;;;;;;;5048981;27;101766;-76
2024/01/17 12:50:48;;;;;;;16.60;6.43;;;;;;;;;;5055045;27;101306;-76
2024/01/17 12:53:15;;;;;;;9.95;7.15;;;;;;;;;;5044840;27;99898;-77
2024/01/17 12:55:42;;;;;;;15.73;7.18;;;;;;;;;;5051953;27;99870;-77
2024/01/17 12:58:11;;;;;;;11.18;6.95;;;;;;;;;;5050797;27;100488;-76
2024/01/17 13:00:40;;;;;;;8.68;6.28;;;;;;;;;;5059897;27;99678;-77
2024/01/17 13:03:08;;;;;;;10.27;7.30;;;;;;;;;;5048685;27;100841;-76
2024/01/17 13:05:35;;;;;;;23.17;7.25;;;;;;;;;;5051321;27;98964;-77
2024/01/17 13:08:05;;;;;;;9.45;6.35;;;;;;;;;;5049013;27;99944;-75
2024/01/17 13:10:32;;;;;;;11.75;7.65;;;;;;;;;;5052441;27;100164;-75
2024/01/17 13:12:59;;;;;;;10.65;8.18;;;;;;;;;;5049041;27;101406;-78
2024/01/17 13:15:26;;;;;;;14.45;8.70;;;;;;;;;;5051683;27;100225;-76
2024/01/17 13:17:54;;;;;;;10.65;7.78;;;;;;;;;;5049026;27;100126;-77
2024/01/17 13:20:21;;;;;;;11.15;7.07;;;;;;;;;;5053601;27;100426;-77
2024/01/17 13:22:53;;;;;;;8.43;7.28;;;;;;;;;;5048003;27;100896;-77
2024/01/17 13:25:22;;;;;;;8.65;7.22;;;;;;;;;;5050514;27;99966;-77
2024/01/17 13:27:55;;;;;;;7.93;7.22;;;;;;;;;;5050017;27;100155;-77
2024/01/17 13:30:22;;;;;;;11.07;8.10;;;;;;;;;;5055090;27;100224;-78
2024/01/17 13:32:49;;;;;;;11.02;8.02;;;;;;;;;;5050559;27;101126;-77
2024/01/17 13:35:16;;;;;;;17.50;7.45;;;;;;;;;;5050311;27;100360;-76
2024/01/17 13:37:43;;;;;;;9.70;7.25;;;;;;;;;;5051484;27;101107;-75
2024/01/17 13:40:11;;;;;;;12.07;7.38;;;;;;;;;;5049607;27;100043;-75
2024/01/17 13:42:37;;;;;;;10.57;7.20;;;;;;;;;;5045079;27;99702;-77
2024/01/17 13:45:08;;;;;;;7.75;6.90;;;;;;;;;;5054933;27;100681;-75
2024/01/17 13:47:35;;;;;;;11.20;7.20;;;;;;;;;;5045683;27;98995;-73
2024/01/17 13:50:16;;;;;;;7.88;7.05;;;;;;;;;;5054352;27;100361;-74
2024/01/17 13:52:49;;;;;;;13.25;7.32;;;;;;;;;;5055222;27;100123;-71
2024/01/17 13:55:18;;;;;;;13.13;8.02;;;;;;;;;;5047609;27;100446;-75
2024/01/17 13:57:46;;;;;;;13.15;7.90;;;;;;;;;;5045266;27;99312;-75
2024/01/17 14:00:12;;;;;;;15.30;8.32;;;;;;;;;;5048178;27;100418;-75
2024/01/17 14:02:42;;;;;;;14.85;7.25;;;;;;;;;;5069182;27;99870;-75
2024/01/17 14:05:11;;;;;;;30.10;7.70;;;;;;;;;;5062513;27;98575;-75
2024/01/17 14:07:40;;;;;;;8.35;6.60;;;;;;;;;;5050679;27;100239;-75
2024/01/17 14:10:08;;;;;;;10.18;7.80;;;;;;;;;;5056059;27;99377;-75
2024/01/17 14:12:34;;;;;;;9.85;7.35;;;;;;;;;;5058221;27;99941;-76
2024/01/17 14:15:03;;;;;;;10.10;7.38;;;;;;;;;;5055556;27;100019;-75
2024/01/17 14:17:38;;;;;;;10.38;7.55;;;;;;;;;;5049576;27;101346;-76
2024/01/17 14:20:16;;;;;;;10.23;8.10;;;;;;;;;;5051491;27;100992;-75
2024/01/17 14:22:47;;;;;;;9.23;6.38;;;;;;;;;;5047564;27;100475;-75
2024/01/17 14:25:14;;;;;;;9.18;7.55;;;;;;;;;;5053259;27;99917;-75
2024/01/17 14:27:42;;;;;;;17.00;6.85;;;;;;;;;;5054552;27;100343;-76
2024/01/17 14:30:11;;;;;;;7.40;6.70;;;;;;;;;;5052056;27;100271;-76